Time;durP1;ratioP1;P1;durP2;ratioP2;P2;SDS_P1;SDS_P2;PMS_P1;PMS_P2;Temp;Humidity;BMP_temperature;BMP_pressure;BME280_temperature;BME280_humidity;BME280_pressure;Samples;Min_cycle;Max_cycle;Signal;HPM_P1;HPM_P2
2020/12/29 11:53:01;;;;;;;3.87;1.77;;;20.90;52.80;;;;;;7042430;27;21202;-44
2020/12/29 11:56:48;;;;;;;4.37;1.53;;;21.00;52.70;;;;;;7026079;28;20254;-44
2020/12/29 12:00:30;;;;;;;3.60;1.70;;;21.10;52.50;;;;;;7041857;28;20233;-44
2020/12/29 12:04:11;;;;;;;4.80;1.57;;;21.10;52.80;;;;;;7040294;28;20281;-44
2020/12/29 12:07:53;;;;;;;4.57;1.67;;;21.00;52.40;;;;;;7041899;28;20213;-42
2020/12/29 12:11:35;;;;;;;4.90;1.70;;;20.90;52.70;;;;;;7041069;28;20606;-46
2020/12/29 12:15:17;;;;;;;6.47;2.57;;;20.80;52.80;;;;;;7044830;28;20199;-44
2020/12/29 12:18:58;;;;;;;5.77;2.30;;;20.90;53.10;;;;;;7079134;22;20235;-47
2020/12/29 12:22:40;;;;;;;7.97;2.20;;;20.90;53.30;;;;;;7001559;28;20228;-47
2020/12/29 12:26:21;;;;;;;12.33;3.23;;;20.80;53.20;;;;;;7004902;28;20193;-48
2020/12/29 12:30:04;;;;;;;5.10;2.60;;;20.80;53.30;;;;;;6985031;28;20280;-49
2020/12/29 12:33:46;;;;;;;15.17;5.67;;;20.80;53.30;;;;;;6977882;28;20214;-48
2020/12/29 12:37:27;;;;;;;12.27;4.60;;;20.80;53.40;;;;;;6969802;28;20251;-48
2020/12/29 12:41:10;;;;;;;12.93;5.23;;;20.80;53.50;;;;;;6969692;28;20225;-48
2020/12/29 12:44:51;;;;;;;10.83;4.50;;;20.80;53.50;;;;;;6981449;28;20781;-48
2020/12/29 12:48:34;;;;;;;12.53;5.53;;;20.80;53.50;;;;;;6968991;28;20289;-47
2020/12/29 12:52:15;;;;;;;16.37;5.50;;;20.80;53.40;;;;;;6977790;28;20304;-47
2020/12/29 12:55:57;;;;;;;13.93;5.47;;;20.80;53.50;;;;;;6960846;28;20268;-47
2020/12/29 12:59:38;;;;;;;17.50;6.23;;;20.80;53.50;;;;;;6978353;28;20291;-45
2020/12/29 13:03:20;;;;;;;18.87;8.10;;;20.90;53.90;;;;;;6960589;28;20545;-48
2020/12/29 13:07:03;;;;;;;17.07;6.77;;;21.20;53.70;;;;;;6959414;28;20247;-48
2020/12/29 13:10:44;;;;;;;19.20;8.00;;;21.30;53.00;;;;;;6965842;28;20217;-47
2020/12/29 13:14:26;;;;;;;20.43;8.40;;;21.30;52.60;;;;;;6965885;28;20193;-47
2020/12/29 13:18:08;;;;;;;20.17;8.07;;;21.30;54.90;;;;;;6968645;28;20615;-48
2020/12/29 13:21:49;;;;;;;18.17;8.10;;;21.40;53.20;;;;;;6966471;28;20636;-47
2020/12/29 13:25:32;;;;;;;16.87;7.87;;;21.50;52.50;;;;;;6967665;28;20272;-47
2020/12/29 13:29:13;;;;;;;21.03;7.63;;;21.50;52.40;;;;;;6967789;28;20288;-47
2020/12/29 13:32:55;;;;;;;22.63;8.40;;;21.50;52.40;;;;;;6962491;28;20641;-48
2020/12/29 13:36:36;;;;;;;19.23;7.87;;;21.50;52.80;;;;;;6967401;28;20315;-46
2020/12/29 13:40:18;;;;;;;17.63;7.93;;;21.50;52.20;;;;;;6968057;28;20377;-47
2020/12/29 13:44:01;;;;;;;23.60;7.90;;;21.50;52.20;;;;;;6957721;28;20205;-47
2020/12/29 13:47:42;;;;;;;18.20;7.10;;;21.60;53.00;;;;;;6961261;28;20327;-48
2020/12/29 13:51:24;;;;;;;17.47;6.57;;;21.50;52.20;;;;;;6951631;28;20186;-49
2020/12/29 13:55:06;;;;;;;20.67;7.73;;;21.30;52.60;;;;;;6952357;28;20688;-52
2020/12/29 13:58:48;;;;;;;14.60;6.97;;;21.20;52.80;;;;;;6945073;28;21039;-48
2020/12/29 14:02:30;;;;;;;15.60;6.47;;;21.20;53.00;;;;;;6951605;28;20741;-48
2020/12/29 14:06:13;;;;;;;15.47;6.43;;;21.20;53.00;;;;;;6961422;28;20720;-50
2020/12/29 14:09:54;;;;;;;11.93;5.53;;;21.10;53.10;;;;;;6951502;28;20229;-48
2020/12/29 14:13:36;;;;;;;14.80;6.17;;;21.10;53.30;;;;;;6941094;28;20206;-47
2020/12/29 14:17:17;;;;;;;17.60;6.63;;;21.10;53.10;;;;;;6957813;28;20274;-48
2020/12/29 14:21:00;;;;;;;14.70;6.17;;;21.20;53.40;;;;;;6937081;28;20712;-47
2020/12/29 14:24:42;;;;;;;16.37;6.20;;;21.20;53.30;;;;;;6958150;28;20609;-46
2020/12/29 14:28:23;;;;;;;18.40;5.63;;;21.20;53.40;;;;;;6960462;28;20708;-46
2020/12/29 14:32:05;;;;;;;15.87;6.20;;;21.20;53.20;;;;;;6950689;28;20189;-46
2020/12/29 14:35:46;;;;;;;14.13;5.60;;;21.10;55.50;;;;;;6951454;28;20280;-45
2020/12/29 14:39:29;;;;;;;14.57;5.93;;;21.30;54.80;;;;;;6954329;28;20268;-44
2020/12/29 14:43:10;;;;;;;10.00;5.00;;;21.40;54.20;;;;;;6941364;28;20219;-45
2020/12/29 14:46:52;;;;;;;16.00;5.97;;;21.40;53.10;;;;;;6940189;28;20292;-44
2020/12/29 14:50:33;;;;;;;10.00;5.10;;;21.50;53.20;;;;;;6952465;28;20233;-45
2020/12/29 14:54:15;;;;;;;12.17;5.00;;;21.50;52.90;;;;;;6962454;28;20287;-46
2020/12/29 14:57:58;;;;;;;14.87;5.40;;;21.60;52.60;;;;;;6964035;28;20727;-44
2020/12/29 15:01:39;;;;;;;12.67;5.40;;;21.60;52.80;;;;;;6960599;28;20216;-44
2020/12/29 15:05:21;;;;;;;15.40;5.87;;;21.70;52.30;;;;;;6956648;28;20202;-44
2020/12/29 15:09:05;;;;;;;10.37;4.70;;;21.50;53.10;;;;;;6949387;28;20237;-43
2020/12/29 15:12:46;;;;;;;8.00;4.63;;;21.60;52.20;;;;;;6955421;28;20186;-45
2020/12/29 15:16:29;;;;;;;8.83;4.73;;;21.60;52.50;;;;;;6959006;28;20229;-44
2020/12/29 15:20:14;;;;;;;11.83;4.53;;;21.60;52.80;;;;;;6963951;28;20290;-45
2020/12/29 15:23:55;;;;;;;9.63;4.40;;;21.60;52.40;;;;;;6966673;28;20680;-44
2020/12/29 15:27:37;;;;;;;10.20;4.20;;;21.60;52.50;;;;;;6955175;28;20236;-44
2020/12/29 15:31:18;;;;;;;8.43;3.83;;;21.70;52.00;;;;;;6957158;28;20217;-45
2020/12/29 15:35:01;;;;;;;8.07;3.90;;;21.60;51.90;;;;;;6962120;28;20339;-44
2020/12/29 15:38:44;;;;;;;10.13;5.20;;;21.60;51.80;;;;;;6959236;28;20298;-46
2020/12/29 15:42:26;;;;;;;9.40;4.37;;;21.40;48.70;;;;;;6957375;28;20248;-45
2020/12/29 15:46:09;;;;;;;7.67;3.80;;;21.50;50.70;;;;;;6956585;28;20652;-44
2020/12/29 15:49:51;;;;;;;8.53;3.83;;;21.70;51.10;;;;;;6966612;28;20185;-43
2020/12/29 15:53:33;;;;;;;7.43;4.20;;;21.70;51.20;;;;;;6955947;28;20727;-47
2020/12/29 15:57:15;;;;;;;7.20;4.17;;;21.70;51.20;;;;;;6952498;28;20275;-44
2020/12/29 16:00:57;;;;;;;8.20;3.53;;;21.70;51.20;;;;;;6960868;28;20224;-44
2020/12/29 16:04:38;;;;;;;6.37;3.43;;;21.80;51.40;;;;;;6957553;28;20336;-45
2020/12/29 16:08:20;;;;;;;6.90;4.00;;;21.70;51.90;;;;;;6962167;28;20213;-45
2020/12/29 16:12:02;;;;;;;6.50;3.63;;;21.70;51.50;;;;;;6964076;28;20308;-45
2020/12/29 16:15:44;;;;;;;5.07;3.20;;;21.70;51.40;;;;;;6962235;28;20272;-46
2020/12/29 16:19:26;;;;;;;7.17;3.67;;;21.70;52.30;;;;;;6961239;28;20746;-45
2020/12/29 16:23:07;;;;;;;6.13;2.97;;;21.70;51.70;;;;;;6946289;28;20305;-45
2020/12/29 16:26:49;;;;;;;6.43;3.23;;;21.70;52.30;;;;;;6959800;28;20229;-43
2020/12/29 16:30:31;;;;;;;12.60;3.43;;;21.70;51.80;;;;;;6964141;28;20307;-45
2020/12/29 16:34:13;;;;;;;6.50;2.70;;;21.80;51.40;;;;;;6954414;28;20190;-44
2020/12/29 16:37:54;;;;;;;5.67;2.73;;;21.70;51.50;;;;;;6963616;28;20225;-45
2020/12/29 16:41:36;;;;;;;6.43;3.27;;;21.70;51.30;;;;;;6964150;28;20292;-45
2020/12/29 16:45:18;;;;;;;5.97;3.23;;;21.50;51.70;;;;;;6966624;28;20239;-44
2020/12/29 16:49:00;;;;;;;5.90;3.20;;;21.60;51.90;;;;;;6954418;28;20300;-48
2020/12/29 16:52:42;;;;;;;8.07;2.90;;;21.70;52.10;;;;;;6967295;28;20225;-47
2020/12/29 16:56:23;;;;;;;5.20;3.20;;;21.70;51.80;;;;;;6965257;28;20545;-49
2020/12/29 17:00:05;;;;;;;8.10;3.03;;;21.70;51.50;;;;;;6965501;28;20221;-49
2020/12/29 17:03:47;;;;;;;7.07;3.00;;;21.50;51.90;;;;;;6965912;28;20237;-45
2020/12/29 17:07:29;;;;;;;5.83;3.20;;;21.50;53.80;;;;;;6960369;28;20720;-45
2020/12/29 17:11:13;;;;;;;5.37;2.73;;;21.70;52.50;;;;;;6961741;28;20197;-47
2020/12/29 17:14:55;;;;;;;6.67;2.70;;;21.80;52.30;;;;;;6965052;28;20275;-46
2020/12/29 17:18:37;;;;;;;6.47;3.00;;;21.80;52.20;;;;;;6961309;28;20268;-46
2020/12/29 17:22:18;;;;;;;6.20;2.50;;;21.80;51.90;;;;;;6965212;28;20213;-45
2020/12/29 17:26:01;;;;;;;4.03;2.60;;;21.80;51.60;;;;;;6963205;28;20676;-46
2020/12/29 17:29:44;;;;;;;5.63;2.80;;;21.80;51.70;;;;;;6957988;28;20219;-44
2020/12/29 17:33:26;;;;;;;3.90;2.63;;;21.80;51.60;;;;;;6958770;28;20201;-44
2020/12/29 17:37:08;;;;;;;8.20;3.17;;;21.70;51.70;;;;;;6964953;28;20671;-47
2020/12/29 17:40:49;;;;;;;5.50;2.80;;;21.80;51.60;;;;;;6963554;28;20276;-45
2020/12/29 17:44:32;;;;;;;3.60;2.77;;;21.70;51.60;;;;;;6966690;28;20202;-44
2020/12/29 17:48:14;;;;;;;3.87;2.60;;;21.60;52.00;;;;;;6967778;28;20653;-47
2020/12/29 17:51:55;;;;;;;5.03;2.30;;;21.50;52.10;;;;;;6963476;28;20276;-43
2020/12/29 17:55:37;;;;;;;3.83;2.70;;;21.50;52.30;;;;;;6960319;28;20285;-44
2020/12/29 17:59:18;;;;;;;3.77;2.53;;;21.50;52.90;;;;;;6966057;28;20626;-44
2020/12/29 18:03:01;;;;;;;3.40;2.43;;;21.50;52.50;;;;;;6965430;28;20213;-43
2020/12/29 18:06:42;;;;;;;3.43;2.50;;;21.50;52.30;;;;;;6965052;28;20688;-44
2020/12/29 18:10:24;;;;;;;4.17;2.63;;;21.50;52.30;;;;;;6963977;28;20221;-43
2020/12/29 18:14:06;;;;;;;3.80;2.60;;;21.30;52.40;;;;;;6964841;28;20229;-46
2020/12/29 18:17:47;;;;;;;3.67;2.27;;;21.30;52.80;;;;;;6958992;28;20224;-46
2020/12/29 18:21:30;;;;;;;3.30;2.53;;;21.00;53.80;;;;;;6951975;28;20220;-46
2020/12/29 18:25:12;;;;;;;4.33;2.47;;;20.90;53.50;;;;;;6942876;28;20272;-48
2020/12/29 18:28:54;;;;;;;3.03;2.00;;;20.80;53.60;;;;;;6952897;28;20244;-44
2020/12/29 18:32:35;;;;;;;4.67;2.67;;;20.80;53.70;;;;;;6958343;28;20280;-45
2020/12/29 18:36:18;;;;;;;3.83;2.47;;;21.00;55.10;;;;;;6959829;28;20918;-46
2020/12/29 18:40:01;;;;;;;5.13;3.10;;;21.40;54.10;;;;;;6962176;28;20237;-44
2020/12/29 18:43:43;;;;;;;2.97;2.23;;;21.60;52.60;;;;;;6965715;28;20208;-45
2020/12/29 18:47:25;;;;;;;2.93;2.37;;;21.60;52.30;;;;;;6963693;28;20696;-44
2020/12/29 18:51:09;;;;;;;3.67;2.27;;;21.70;54.20;;;;;;6963175;28;20703;-45
2020/12/29 18:54:51;;;;;;;3.30;2.60;;;21.70;53.80;;;;;;6967266;28;20276;-45
2020/12/29 18:58:33;;;;;;;4.73;2.23;;;21.80;52.40;;;;;;6957871;28;20697;-45
2020/12/29 19:02:15;;;;;;;2.77;2.20;;;21.80;53.10;;;;;;6961092;28;20311;-45
2020/12/29 19:05:57;;;;;;;3.73;2.27;;;21.80;51.90;;;;;;6961258;28;20286;-47
2020/12/29 19:09:38;;;;;;;4.83;2.50;;;21.80;51.60;;;;;;6960925;28;20291;-49
2020/12/29 19:13:20;;;;;;;3.90;2.37;;;21.80;51.30;;;;;;6955911;28;20277;-47
2020/12/29 19:17:02;;;;;;;2.97;2.33;;;21.70;51.50;;;;;;6949176;22;20261;-46
2020/12/29 19:20:44;;;;;;;3.17;2.47;;;21.60;52.20;;;;;;6871161;28;20261;-47
2020/12/29 19:24:25;;;;;;;2.80;2.23;;;21.60;51.60;;;;;;6926879;28;20278;-50
2020/12/29 19:28:10;;;;;;;4.60;2.17;;;21.60;51.70;;;;;;6880306;28;20317;-46
2020/12/29 19:31:53;;;;;;;3.13;2.40;;;21.60;51.80;;;;;;6877140;28;20597;-46
2020/12/29 19:35:37;;;;;;;5.47;2.78;;;21.60;51.80;;;;;;6877923;28;20488;-46
2020/12/29 19:39:18;;;;;;;4.30;2.27;;;21.50;52.00;;;;;;6884387;28;20215;-46
2020/12/29 19:43:00;;;;;;;4.03;2.60;;;21.40;53.00;;;;;;6883076;28;20262;-47
2020/12/29 19:46:41;;;;;;;3.27;2.47;;;21.40;52.70;;;;;;6854026;28;20366;-48
2020/12/29 19:50:23;;;;;;;3.57;2.40;;;21.30;53.60;;;;;;6854261;28;20196;-44
2020/12/29 19:54:05;;;;;;;5.00;2.90;;;21.20;53.20;;;;;;6854924;28;20274;-45
2020/12/29 19:57:47;;;;;;;3.30;2.63;;;21.20;53.50;;;;;;6855060;28;20212;-45
2020/12/29 20:01:29;;;;;;;4.23;2.00;;;21.10;53.60;;;;;;6859205;28;20315;-45
2020/12/29 20:05:10;;;;;;;5.23;2.60;;;21.00;53.80;;;;;;6874622;28;20218;-46
2020/12/29 20:08:52;;;;;;;3.50;2.27;;;21.00;54.00;;;;;;6877339;28;20741;-51
2020/12/29 20:12:36;;;;;;;6.13;2.43;;;20.90;54.70;;;;;;6868803;28;20324;-55
2020/12/29 20:16:17;;;;;;;3.20;2.65;;;20.80;54.40;;;;;;6883459;28;20421;-54
2020/12/29 20:19:59;;;;;;;3.83;2.70;;;20.80;54.70;;;;;;6886808;28;20238;-54
2020/12/29 20:23:41;;;;;;;6.00;2.50;;;20.70;54.60;;;;;;6884935;28;20271;-50
2020/12/29 20:27:23;;;;;;;3.47;2.50;;;20.70;54.80;;;;;;6883126;28;20246;-51
2020/12/29 20:31:05;;;;;;;2.53;2.10;;;20.70;55.00;;;;;;6885619;28;20283;-54
2020/12/29 20:34:47;;;;;;;2.97;2.30;;;20.60;55.10;;;;;;6885515;28;20279;-52
2020/12/29 20:38:29;;;;;;;5.90;2.50;;;20.60;55.20;;;;;;6887132;28;20215;-55
2020/12/29 20:42:10;;;;;;;3.10;2.10;;;20.50;55.30;;;;;;6884871;28;20221;-53
2020/12/29 20:45:53;;;;;;;2.67;1.93;;;20.50;55.40;;;;;;6884522;28;20282;-56
2020/12/29 20:49:35;;;;;;;3.20;2.30;;;20.40;55.50;;;;;;6882221;28;20195;-54
2020/12/29 20:53:17;;;;;;;2.23;1.90;;;20.40;55.60;;;;;;6882348;28;20203;-54
2020/12/29 20:56:59;;;;;;;2.73;2.17;;;20.40;55.80;;;;;;6886774;28;20219;-53
2020/12/29 21:00:41;;;;;;;3.00;2.13;;;20.30;55.80;;;;;;6886202;28;20273;-55
2020/12/29 21:04:23;;;;;;;2.97;2.10;;;20.30;56.00;;;;;;6882841;28;20315;-54
2020/12/29 21:08:05;;;;;;;2.73;2.03;;;20.20;56.00;;;;;;6886612;28;20294;-51
2020/12/29 21:11:47;;;;;;;2.57;2.03;;;20.20;56.10;;;;;;6884183;28;20262;-54
2020/12/29 21:15:28;;;;;;;3.43;2.30;;;20.20;56.30;;;;;;6886655;28;20196;-55
2020/12/29 21:19:10;;;;;;;2.27;1.70;;;20.10;56.40;;;;;;6884275;28;20325;-51
2020/12/29 21:22:51;;;;;;;1.87;1.73;;;20.10;56.40;;;;;;6881886;28;20302;-53
2020/12/29 21:26:35;;;;;;;2.13;1.80;;;20.10;56.50;;;;;;6884439;28;20211;-54
2020/12/29 21:30:17;;;;;;;3.83;2.10;;;20.00;56.60;;;;;;6881052;28;20200;-56
2020/12/29 21:33:59;;;;;;;3.17;2.10;;;20.00;56.70;;;;;;6884868;28;20248;-54
2020/12/29 21:37:41;;;;;;;2.07;1.77;;;20.00;56.80;;;;;;6882414;28;20210;-54
2020/12/29 21:41:23;;;;;;;1.93;1.60;;;19.90;56.80;;;;;;6881915;28;20222;-57
2020/12/29 21:45:05;;;;;;;2.07;1.80;;;19.90;56.90;;;;;;6882700;28;20723;-54
2020/12/29 21:48:48;;;;;;;2.80;1.80;;;19.90;57.10;;;;;;6883672;28;20211;-53
2020/12/29 21:52:30;;;;;;;2.37;1.90;;;19.90;57.00;;;;;;6888944;28;20199;-56
2020/12/29 21:56:12;;;;;;;2.53;1.80;;;19.90;57.10;;;;;;6885157;28;20230;-56
2020/12/29 21:59:54;;;;;;;1.67;1.57;;;19.80;57.20;;;;;;6880930;28;20206;-57
2020/12/29 22:03:36;;;;;;;2.17;1.87;;;19.80;57.20;;;;;;6883678;28;20219;-54
2020/12/29 22:07:18;;;;;;;2.83;1.63;;;19.70;57.20;;;;;;6886131;28;20211;-54
2020/12/29 22:11:00;;;;;;;2.77;1.90;;;19.70;57.30;;;;;;6884833;28;20187;-55
2020/12/29 22:14:41;;;;;;;2.00;1.80;;;19.70;57.40;;;;;;6882852;28;20191;-55
2020/12/29 22:18:23;;;;;;;2.00;1.80;;;19.70;57.50;;;;;;6881659;28;20598;-56
2020/12/29 22:22:05;;;;;;;2.23;1.70;;;19.60;57.50;;;;;;6881829;28;20556;-54
2020/12/29 22:25:47;;;;;;;2.43;1.70;;;19.60;57.60;;;;;;6879996;28;20195;-57
2020/12/29 22:29:29;;;;;;;1.63;1.53;;;19.60;57.70;;;;;;6880706;28;20204;-57
2020/12/29 22:33:11;;;;;;;2.07;1.77;;;19.60;57.80;;;;;;6883453;28;20195;-57
2020/12/29 22:36:54;;;;;;;2.07;1.87;;;19.60;57.80;;;;;;6882501;28;20726;-55
2020/12/29 22:40:37;;;;;;;1.60;1.50;;;19.50;57.80;;;;;;6884608;28;20191;-55
2020/12/29 22:44:19;;;;;;;3.50;1.80;;;19.50;57.90;;;;;;6884634;28;20209;-54
2020/12/29 22:48:00;;;;;;;2.17;1.80;;;19.50;58.00;;;;;;6884969;28;20218;-54
2020/12/29 22:51:42;;;;;;;2.67;1.80;;;19.50;58.10;;;;;;6882052;28;20183;-53
2020/12/29 22:55:24;;;;;;;2.53;1.73;;;19.50;58.10;;;;;;6883644;28;20223;-56
2020/12/29 22:59:06;;;;;;;1.60;1.50;;;19.40;58.10;;;;;;6883203;28;20249;-53
2020/12/29 23:02:48;;;;;;;1.47;1.37;;;19.40;58.20;;;;;;6886804;28;20723;-54
2020/12/29 23:06:30;;;;;;;2.47;1.70;;;19.40;58.20;;;;;;6885824;28;20297;-53
2020/12/29 23:10:11;;;;;;;1.80;1.43;;;19.40;58.30;;;;;;6882544;28;20199;-52
2020/12/29 23:13:53;;;;;;;3.07;1.37;;;19.40;58.30;;;;;;6883464;28;20711;-54
2020/12/29 23:17:35;;;;;;;1.57;1.33;;;19.40;58.40;;;;;;6882503;28;20223;-54
2020/12/29 23:21:17;;;;;;;1.90;1.70;;;19.30;58.40;;;;;;6883093;28;20254;-56
2020/12/29 23:24:58;;;;;;;2.57;1.60;;;19.30;58.40;;;;;;6882514;28;20227;-54
2020/12/29 23:28:41;;;;;;;1.40;1.30;;;19.30;58.50;;;;;;6883310;28;20291;-54
2020/12/29 23:32:23;;;;;;;1.63;1.53;;;19.30;58.50;;;;;;6883341;28;20187;-53
2020/12/29 23:36:06;;;;;;;1.70;1.60;;;19.30;58.60;;;;;;6883436;28;20193;-54
2020/12/29 23:39:47;;;;;;;1.70;1.53;;;19.30;58.60;;;;;;6874495;28;20275;-54
2020/12/29 23:43:29;;;;;;;2.60;2.00;;;19.30;58.60;;;;;;6857554;28;20294;-51
2020/12/29 23:47:11;;;;;;;1.73;1.50;;;19.20;58.60;;;;;;6857322;28;20789;-52
2020/12/29 23:50:52;;;;;;;1.60;1.43;;;19.20;58.70;;;;;;6857620;28;20200;-53
2020/12/29 23:54:35;;;;;;;2.47;1.93;;;19.20;58.70;;;;;;6877087;28;20282;-53
2020/12/29 23:58:16;;;;;;;1.63;1.40;;;19.20;58.70;;;;;;6883334;28;20221;-51
